createdAt,value
2022-08-21T00:00:13.058Z,5.53
2022-08-21T00:03:37.797Z,4.38
2022-08-21T00:07:00.833Z,4.28
2022-08-21T00:10:24.291Z,4.93
2022-08-21T00:13:47.406Z,4.75
2022-08-21T00:17:10.466Z,4.80
2022-08-21T00:20:35.617Z,3.80
2022-08-21T00:23:58.649Z,4.05
2022-08-21T00:27:21.681Z,4.70
2022-08-21T00:30:45.546Z,4.60
2022-08-21T00:34:09.028Z,4.13
2022-08-21T00:37:35.301Z,6.15
2022-08-21T00:41:02.817Z,3.85
2022-08-21T00:44:44.721Z,6.70
2022-08-21T00:48:07.910Z,5.50
2022-08-21T00:51:38.711Z,4.50
2022-08-21T00:55:03.809Z,5.13
2022-08-21T00:58:29.491Z,3.75
2022-08-21T01:01:53.065Z,3.60
2022-08-21T01:05:16.231Z,3.90
2022-08-21T01:08:39.863Z,4.80
2022-08-21T01:12:12.896Z,4.03
2022-08-21T01:15:38.582Z,4.57
2022-08-21T01:19:01.572Z,4.13
2022-08-21T01:22:25.969Z,3.83
2022-08-21T01:25:48.955Z,3.60
2022-08-21T01:29:21.831Z,5.20
2022-08-21T01:32:45.127Z,4.40
2022-08-21T01:36:08.751Z,6.07
2022-08-21T01:39:33.321Z,5.15
2022-08-21T01:42:56.410Z,3.70
2022-08-21T01:46:19.513Z,3.53
2022-08-21T01:49:43.752Z,3.92
2022-08-21T01:53:06.954Z,4.45
2022-08-21T01:56:37.123Z,4.18
2022-08-21T02:00:00.238Z,3.15
2022-08-21T02:03:35.330Z,3.10
2022-08-21T02:06:59.269Z,6.10
2022-08-21T02:10:25.382Z,5.47
2022-08-21T02:13:49.893Z,5.30
2022-08-21T02:17:13.056Z,4.00
2022-08-21T02:20:38.307Z,4.32
2022-08-21T02:24:01.522Z,4.10
2022-08-21T02:27:27.024Z,3.88
2022-08-21T02:30:52.947Z,3.83
2022-08-21T02:34:16.528Z,4.05
2022-08-21T02:37:46.481Z,3.95
2022-08-21T02:41:11.780Z,4.35
2022-08-21T02:44:34.939Z,9.38
2022-08-21T02:48:01.629Z,3.83
2022-08-21T02:51:27.241Z,4.15
2022-08-21T02:54:50.271Z,3.90
2022-08-21T02:58:14.109Z,4.22
2022-08-21T03:01:38.417Z,4.57
2022-08-21T03:05:02.892Z,3.53
2022-08-21T03:08:26.472Z,4.13
2022-08-21T03:11:51.349Z,3.58
2022-08-21T03:15:18.060Z,4.60
2022-08-21T03:18:41.185Z,4.18
2022-08-21T03:22:06.194Z,5.38
2022-08-21T03:25:40.101Z,6.03
2022-08-21T03:29:04.109Z,4.25
2022-08-21T03:32:27.123Z,4.60
2022-08-21T03:36:01.434Z,4.00
2022-08-21T03:39:25.804Z,5.10
2022-08-21T03:42:49.413Z,5.68
2022-08-21T03:46:12.826Z,5.45
2022-08-21T03:49:35.855Z,4.68
2022-08-21T03:52:59.777Z,5.03
2022-08-21T03:56:24.667Z,6.03
2022-08-21T03:59:48.137Z,7.38
2022-08-21T04:03:11.171Z,4.00
2022-08-21T04:06:37.884Z,4.38
2022-08-21T04:10:01.000Z,4.70
2022-08-21T04:13:25.625Z,7.57
2022-08-21T04:16:48.665Z,4.68
2022-08-21T04:20:11.840Z,5.43
2022-08-21T04:23:35.111Z,5.60
2022-08-21T04:26:58.164Z,4.47
2022-08-21T04:30:28.144Z,4.80
2022-08-21T04:33:51.779Z,5.82
2022-08-21T04:37:16.288Z,4.88
2022-08-21T04:40:39.373Z,9.20
2022-08-21T04:44:02.353Z,4.50
2022-08-21T04:47:52.106Z,6.28
2022-08-21T04:51:17.057Z,4.85
2022-08-21T04:54:40.249Z,5.75
2022-08-21T04:58:03.414Z,4.45
2022-08-21T05:01:29.261Z,5.53
2022-08-21T05:04:56.437Z,5.97
2022-08-21T05:08:24.115Z,4.72
2022-08-21T05:11:47.534Z,5.15
2022-08-21T05:15:13.313Z,6.03
2022-08-21T05:18:37.001Z,7.05
2022-08-21T05:22:01.676Z,5.72
2022-08-21T05:25:25.704Z,6.05
2022-08-21T05:28:51.233Z,5.68
2022-08-21T05:32:15.426Z,5.60
2022-08-21T05:35:39.721Z,5.30
2022-08-21T05:39:04.676Z,8.32
2022-08-21T05:42:28.745Z,13.98
2022-08-21T05:45:51.785Z,10.82
2022-08-21T05:49:15.007Z,11.80
2022-08-21T05:52:38.092Z,7.50
2022-08-21T05:56:04.657Z,7.50
2022-08-21T05:59:28.597Z,7.32
2022-08-21T06:02:51.928Z,7.40
2022-08-21T06:06:15.101Z,7.38
2022-08-21T06:09:38.934Z,10.10
2022-08-21T06:13:03.313Z,7.60
2022-08-21T06:16:26.532Z,10.13
2022-08-21T06:19:53.503Z,10.27
2022-08-21T06:23:16.482Z,6.65
2022-08-21T06:26:39.819Z,9.82
2022-08-21T06:30:04.293Z,8.88
2022-08-21T06:33:32.375Z,5.95
2022-08-21T06:36:55.796Z,13.02
2022-08-21T06:40:20.048Z,6.00
2022-08-21T06:43:44.952Z,8.65
2022-08-21T06:47:09.372Z,8.40
2022-08-21T06:50:32.677Z,5.57
2022-08-21T06:53:55.964Z,8.02
2022-08-21T06:57:19.790Z,6.22
2022-08-21T07:00:46.352Z,5.10
2022-08-21T07:04:10.749Z,4.70
2022-08-21T07:07:33.717Z,5.00
2022-08-21T07:10:58.813Z,9.27
2022-08-21T07:14:21.829Z,8.68
2022-08-21T07:17:44.869Z,8.52
2022-08-21T07:21:09.684Z,8.52
2022-08-21T07:24:32.613Z,7.50
2022-08-21T07:27:55.653Z,8.05
2022-08-21T07:31:24.826Z,5.43
2022-08-21T07:34:47.858Z,5.47
2022-08-21T07:38:12.338Z,8.63
2022-08-21T07:41:36.512Z,5.47
2022-08-21T07:44:59.594Z,4.60
2022-08-21T07:48:23.094Z,5.55
2022-08-21T07:51:46.698Z,3.55
2022-08-21T07:55:13.192Z,4.93
2022-08-21T07:58:36.681Z,3.45
2022-08-21T08:01:59.693Z,4.40
2022-08-21T08:05:24.116Z,3.38
2022-08-21T08:08:48.193Z,4.32
2022-08-21T08:12:12.774Z,3.30
2022-08-21T08:15:37.807Z,4.03
2022-08-21T08:19:00.791Z,4.28
2022-08-21T08:22:25.429Z,3.45
2022-08-21T08:25:48.486Z,6.05
2022-08-21T08:29:12.833Z,5.05
2022-08-21T08:32:35.973Z,3.08
2022-08-21T08:36:03.396Z,4.82
2022-08-21T08:39:29.828Z,4.15
2022-08-21T08:42:53.111Z,3.83
2022-08-21T08:46:20.894Z,4.75
2022-08-21T08:49:51.584Z,7.47
2022-08-21T08:53:19.293Z,7.47
2022-08-21T08:56:42.693Z,6.25
2022-08-21T09:00:08.907Z,6.43
2022-08-21T09:03:33.294Z,6.32
2022-08-21T09:07:03.889Z,6.05
2022-08-21T09:10:35.507Z,6.40
2022-08-21T09:14:12.353Z,6.80
2022-08-21T09:17:53.942Z,3.60
2022-08-21T09:21:26.434Z,3.85
2022-08-21T09:25:03.470Z,3.58
2022-08-21T09:28:27.389Z,2.10
2022-08-21T09:31:50.411Z,2.17
2022-08-21T09:35:16.644Z,2.08
2022-08-21T09:38:41.036Z,1.92
2022-08-21T09:42:07.696Z,2.25
2022-08-21T09:45:34.060Z,4.25
2022-08-21T09:49:00.126Z,4.18
2022-08-21T09:52:27.517Z,1.70
2022-08-21T09:56:12.361Z,3.70
2022-08-21T09:59:37.409Z,5.55
2022-08-21T10:03:17.632Z,3.25
2022-08-21T10:06:41.147Z,5.22
2022-08-21T10:10:08.362Z,2.25
2022-08-21T10:13:49.336Z,4.30
2022-08-21T10:17:20.172Z,3.47
2022-08-21T10:20:48.102Z,3.47
2022-08-21T10:24:30.677Z,2.33
2022-08-21T10:28:02.348Z,3.10
2022-08-21T10:31:38.918Z,2.47
2022-08-21T10:35:09.862Z,4.15
2022-08-21T10:39:25.261Z,3.90
2022-08-21T10:42:54.167Z,3.38
2022-08-21T10:46:26.375Z,3.63
2022-08-21T10:49:59.757Z,4.65
2022-08-21T10:53:45.856Z,2.72
2022-08-21T10:57:14.956Z,1.55
2022-08-21T11:00:45.438Z,3.45
2022-08-21T11:04:15.181Z,2.13
2022-08-21T11:07:45.975Z,3.35
2022-08-21T11:11:22.103Z,1.80
2022-08-21T11:14:53.753Z,2.42
2022-08-21T11:18:26.457Z,1.55
2022-08-21T11:21:55.252Z,3.60
2022-08-21T11:25:25.436Z,2.80
2022-08-21T11:29:02.139Z,1.50
2022-08-21T11:32:43.236Z,1.98
2022-08-21T11:36:15.204Z,3.47
2022-08-21T11:39:46.783Z,5.57
2022-08-21T11:43:19.085Z,4.50
2022-08-21T11:46:51.277Z,1.40
2022-08-21T11:50:32.519Z,16.48
2022-08-21T11:54:07.282Z,24.40
2022-08-21T11:57:34.653Z,26.77
2022-08-21T12:01:02.877Z,30.58
2022-08-21T12:04:30.656Z,28.67
2022-08-21T12:08:04.580Z,22.05
2022-08-21T12:11:30.843Z,14.60
2022-08-21T12:15:08.306Z,15.45
2022-08-21T12:18:33.409Z,15.93
2022-08-21T12:22:01.532Z,16.55
2022-08-21T12:25:24.772Z,19.30
2022-08-21T12:28:47.921Z,14.73
2022-08-21T12:32:25.984Z,8.85
2022-08-21T12:35:52.373Z,12.85
2022-08-21T12:39:21.169Z,16.95
2022-08-21T12:42:58.064Z,15.15
2022-08-21T12:46:24.517Z,17.88
2022-08-21T12:49:55.341Z,12.50
2022-08-21T12:53:27.235Z,14.65
2022-08-21T12:56:58.515Z,14.43
2022-08-21T13:00:25.118Z,17.20
2022-08-21T13:03:49.044Z,12.65
2022-08-21T13:07:30.785Z,11.27
2022-08-21T13:11:09.142Z,8.48
2022-08-21T13:14:45.796Z,14.88
2022-08-21T13:18:09.645Z,12.20
2022-08-21T13:21:35.652Z,8.13
2022-08-21T13:24:58.913Z,8.07
2022-08-21T13:28:35.085Z,5.45
2022-08-21T13:32:01.189Z,8.70
2022-08-21T13:35:27.787Z,10.70
2022-08-21T13:38:50.830Z,6.05
2022-08-21T13:42:15.079Z,9.52
2022-08-21T13:45:39.491Z,6.90
2022-08-21T13:49:07.010Z,6.13
2022-08-21T13:52:30.052Z,6.88
2022-08-21T13:55:56.322Z,7.18
2022-08-21T13:59:30.397Z,5.68
2022-08-21T14:03:01.688Z,10.57
2022-08-21T14:06:28.471Z,8.40
2022-08-21T14:09:51.504Z,5.45
2022-08-21T14:13:32.207Z,6.10
2022-08-21T14:16:59.809Z,3.78
2022-08-21T14:20:34.446Z,10.00
2022-08-21T14:24:09.864Z,7.50
2022-08-21T14:27:33.729Z,4.57
2022-08-21T14:30:58.318Z,7.25
2022-08-21T14:34:23.991Z,5.57
2022-08-21T14:37:48.857Z,4.57
2022-08-21T14:41:19.278Z,3.38
2022-08-21T14:44:42.316Z,5.63
2022-08-21T14:48:05.513Z,3.53
2022-08-21T14:51:29.189Z,5.13
2022-08-21T14:54:53.552Z,4.63
2022-08-21T14:58:16.673Z,4.93
2022-08-21T15:01:41.346Z,6.18
2022-08-21T15:05:04.776Z,2.35
2022-08-21T15:08:27.815Z,3.72
2022-08-21T15:11:52.900Z,3.78
2022-08-21T15:15:17.670Z,3.72
2022-08-21T15:18:42.764Z,3.08
2022-08-21T15:22:15.534Z,3.97
2022-08-21T15:25:44.108Z,7.63
2022-08-21T15:29:09.942Z,5.03
2022-08-21T15:32:33.657Z,3.38
2022-08-21T15:35:56.806Z,2.70
2022-08-21T15:39:19.881Z,4.65
2022-08-21T15:42:48.472Z,3.75
2022-08-21T15:46:16.215Z,5.65
2022-08-21T15:49:39.292Z,2.72
2022-08-21T15:53:02.327Z,3.50
2022-08-21T15:56:28.073Z,6.50
2022-08-21T15:59:54.420Z,4.03
2022-08-21T16:03:22.558Z,6.47
2022-08-21T16:06:54.396Z,4.97
2022-08-21T16:10:20.798Z,4.25
2022-08-21T16:13:46.558Z,3.88
2022-08-21T16:17:10.304Z,2.35
2022-08-21T16:20:34.765Z,5.13
2022-08-21T16:23:57.774Z,2.35
2022-08-21T16:27:21.502Z,5.38
2022-08-21T16:30:52.062Z,7.80
2022-08-21T16:34:19.284Z,13.25
2022-08-21T16:37:44.720Z,7.78
2022-08-21T16:41:10.522Z,7.18
2022-08-21T16:44:35.441Z,5.75
2022-08-21T16:48:00.490Z,6.65
2022-08-21T16:51:25.026Z,5.68
2022-08-21T16:54:49.364Z,5.88
2022-08-21T16:58:18.545Z,5.80
2022-08-21T17:01:41.845Z,7.80
2022-08-21T17:05:06.584Z,5.18
2022-08-21T17:08:37.148Z,4.38
2022-08-21T17:12:01.561Z,9.05
2022-08-21T17:15:27.350Z,18.52
2022-08-21T17:18:51.979Z,10.63
2022-08-21T17:22:17.613Z,17.80
2022-08-21T17:25:44.034Z,15.52
2022-08-21T17:29:10.029Z,18.88
2022-08-21T17:32:33.054Z,14.95
2022-08-21T17:35:56.121Z,17.33
2022-08-21T17:39:22.410Z,15.05
2022-08-21T17:42:50.404Z,17.00
2022-08-21T17:46:20.031Z,15.93
2022-08-21T17:49:43.163Z,13.13
2022-08-21T17:53:06.586Z,17.98
2022-08-21T17:56:33.295Z,14.68
2022-08-21T17:59:58.487Z,13.68
2022-08-21T18:03:24.040Z,20.60
2022-08-21T18:06:47.113Z,18.48
2022-08-21T18:10:13.310Z,15.98
2022-08-21T18:13:38.621Z,17.73
2022-08-21T18:17:01.879Z,18.45
2022-08-21T18:20:26.265Z,16.23
2022-08-21T18:23:49.622Z,14.75
2022-08-21T18:27:13.382Z,14.98
2022-08-21T18:30:40.821Z,16.63
2022-08-21T18:34:10.680Z,15.98
2022-08-21T18:37:35.277Z,13.00
2022-08-21T18:40:59.599Z,17.33
2022-08-21T18:44:26.800Z,15.32
2022-08-21T18:47:52.023Z,12.73
2022-08-21T18:51:15.016Z,14.20
2022-08-21T18:54:39.984Z,18.05
2022-08-21T18:58:05.850Z,12.00
2022-08-21T19:01:28.907Z,13.15
2022-08-21T19:04:51.997Z,16.77
2022-08-21T19:08:16.558Z,11.70
2022-08-21T19:11:44.166Z,12.95
2022-08-21T19:15:09.285Z,12.02
2022-08-21T19:18:35.898Z,11.20
2022-08-21T19:21:58.908Z,11.68
2022-08-21T19:25:33.522Z,14.02
2022-08-21T19:29:01.973Z,11.27
2022-08-21T19:32:25.217Z,10.45
2022-08-21T19:35:51.068Z,17.05
2022-08-21T19:39:17.651Z,17.38
2022-08-21T19:42:42.025Z,13.35
2022-08-21T19:46:06.549Z,11.75
2022-08-21T19:49:33.405Z,12.80
2022-08-21T19:52:56.655Z,15.73
2022-08-21T19:56:21.657Z,11.13
2022-08-21T19:59:46.327Z,14.30
2022-08-21T20:03:11.280Z,11.35
2022-08-21T20:06:35.354Z,7.53
2022-08-21T20:09:58.460Z,9.43
2022-08-21T20:13:22.574Z,10.50
2022-08-21T20:16:47.277Z,12.05
2022-08-21T20:20:11.975Z,11.50
2022-08-21T20:23:35.096Z,10.63
2022-08-21T20:27:00.442Z,10.88
2022-08-21T20:30:23.493Z,7.65
2022-08-21T20:33:49.058Z,11.82
2022-08-21T20:37:14.184Z,7.60
2022-08-21T20:40:57.239Z,4.97
2022-08-21T20:44:20.586Z,5.80
2022-08-21T20:47:43.683Z,8.75
2022-08-21T20:51:12.629Z,6.70
2022-08-21T20:54:41.546Z,5.03
2022-08-21T20:58:08.545Z,9.10
2022-08-21T21:01:36.484Z,6.93
2022-08-21T21:05:05.881Z,6.47
2022-08-21T21:08:33.521Z,6.50
2022-08-21T21:12:01.356Z,8.63
2022-08-21T21:15:29.817Z,6.53
2022-08-21T21:18:57.114Z,5.38
2022-08-21T21:22:25.520Z,3.70
2022-08-21T21:26:00.239Z,3.92
2022-08-21T21:29:29.855Z,3.60
2022-08-21T21:32:53.042Z,3.95
2022-08-21T21:36:25.238Z,4.18
2022-08-21T21:40:00.785Z,3.75
2022-08-21T21:43:33.599Z,5.32
2022-08-21T21:47:04.984Z,5.50
2022-08-21T21:50:42.724Z,3.20
2022-08-21T21:54:17.809Z,3.25
2022-08-21T21:57:52.678Z,4.47
2022-08-21T22:01:27.140Z,5.82
2022-08-21T22:05:14.856Z,3.08
2022-08-21T22:08:48.827Z,3.53
2022-08-21T22:12:49.800Z,3.03
2022-08-21T22:16:13.743Z,3.88
2022-08-21T22:19:42.496Z,4.22
2022-08-21T22:23:10.937Z,4.80
2022-08-21T22:26:39.152Z,4.18
2022-08-21T22:30:10.257Z,5.22
2022-08-21T22:33:33.291Z,3.15
2022-08-21T22:36:59.295Z,3.75
2022-08-21T22:44:21.737Z,4.78
2022-08-21T22:47:48.727Z,4.43
2022-08-21T22:51:15.702Z,3.88
2022-08-21T22:54:45.195Z,5.50
2022-08-21T22:58:12.656Z,3.70
2022-08-21T23:01:43.029Z,3.03
2022-08-21T23:05:18.019Z,3.20
2022-08-21T23:08:41.404Z,3.35
2022-08-21T23:12:33.149Z,3.90
2022-08-21T23:16:06.488Z,3.58
2022-08-21T23:19:54.720Z,4.30
2022-08-21T23:23:24.151Z,10.18
2022-08-21T23:26:57.223Z,4.15
2022-08-21T23:30:29.123Z,4.13
2022-08-21T23:34:05.741Z,3.40
2022-08-21T23:37:51.707Z,4.25
2022-08-21T23:41:34.167Z,4.38
2022-08-21T23:45:13.834Z,4.38
2022-08-21T23:48:47.323Z,2.90
2022-08-21T23:52:19.044Z,3.83
2022-08-21T23:59:44.461Z,4.40
